地図

経路データ

SID SEASON NUMBER BASIN SUBBASIN NAME ISO_TIME NATURE LAT LON WMO_WIND WMO_PRES WMO_AGENCY TRACK_TYPE DIST2LAND LANDFALL IFLAG USA_AGENCY USA_ATCF_ID USA_LAT USA_LON USA_RECORD USA_STATUS USA_WIND USA_PRES USA_SSHS USA_R34_NE USA_R34_SE USA_R34_SW USA_R34_NW USA_R50_NE USA_R50_SE USA_R50_SW USA_R50_NW USA_R64_NE USA_R64_SE USA_R64_SW USA_R64_NW USA_POCI USA_ROCI USA_RMW USA_EYE TOKYO_LAT TOKYO_LON TOKYO_GRADE TOKYO_WIND TOKYO_PRES TOKYO_R50_DIR TOKYO_R50_LONG TOKYO_R50_SHORT TOKYO_R30_DIR TOKYO_R30_LONG TOKYO_R30_SHORT TOKYO_LAND CMA_LAT CMA_LON CMA_CAT CMA_WIND CMA_PRES HKO_LAT HKO_LON HKO_CAT HKO_WIND HKO_PRES NEWDELHI_LAT NEWDELHI_LON NEWDELHI_GRADE NEWDELHI_WIND NEWDELHI_PRES NEWDELHI_CI NEWDELHI_DP NEWDELHI_POCI REUNION_LAT REUNION_LON REUNION_TYPE REUNION_WIND REUNION_PRES REUNION_TNUM REUNION_CI REUNION_RMW REUNION_R34_NE REUNION_R34_SE REUNION_R34_SW REUNION_R34_NW REUNION_R50_NE REUNION_R50_SE REUNION_R50_SW REUNION_R50_NW REUNION_R64_NE REUNION_R64_SE REUNION_R64_SW REUNION_R64_NW BOM_LAT BOM_LON BOM_TYPE BOM_WIND BOM_PRES BOM_TNUM BOM_CI BOM_RMW BOM_R34_NE BOM_R34_SE BOM_R34_SW BOM_R34_NW BOM_R50_NE BOM_R50_SE BOM_R50_SW BOM_R50_NW BOM_R64_NE BOM_R64_SE BOM_R64_SW BOM_R64_NW BOM_ROCI BOM_POCI BOM_EYE BOM_POS_METHOD BOM_PRES_METHOD NADI_LAT NADI_LON NADI_CAT NADI_WIND NADI_PRES WELLINGTON_LAT WELLINGTON_LON WELLINGTON_WIND WELLINGTON_PRES DS824_LAT DS824_LON DS824_STAGE DS824_WIND DS824_PRES TD9636_LAT TD9636_LON TD9636_STAGE TD9636_WIND TD9636_PRES TD9635_LAT TD9635_LON TD9635_WIND TD9635_PRES TD9635_ROCI NEUMANN_LAT NEUMANN_LON NEUMANN_CLASS NEUMANN_WIND NEUMANN_PRES MLC_LAT MLC_LON MLC_CLASS MLC_WIND MLC_PRES USA_GUST BOM_GUST BOM_GUST_PER REUNION_GUST REUNION_GUST_PER USA_SEAHGT USA_SEARAD_NE USA_SEARAD_SE USA_SEARAD_SW USA_SEARAD_NW STORM_SPEED STORM_DIR
1940253N10156 1940 63 WP MM NOT_NAMED 1940-09-09 09:00:00 NR 10.1000 156.100 main 1545 1533 __________O___ -1 10.1000 156.100 4 6 278
1940253N10156 1940 63 WP MM NOT_NAMED 1940-09-09 12:00:00 NR 10.1449 155.777 main 1533 1529 __________P___ -1 10.1449 155.777 4 7 278
1940253N10156 1940 63 WP MM NOT_NAMED 1940-09-09 15:00:00 NR 10.1917 155.444 main 1529 1518 __________P___ -1 10.1917 155.444 4 7 278
1940253N10156 1940 63 WP MM NOT_NAMED 1940-09-09 18:00:00 NR 10.2427 155.088 main 1518 1515 __________P___ -1 10.2427 155.088 4 7 278
1940253N10156 1940 63 WP MM NOT_NAMED 1940-09-09 21:00:00 NR 10.3000 154.700 main 1516 1507 __________O___ -1 10.3000 154.700 4 8 279
1940253N10156 1940 63 WP MM NOT_NAMED 1940-09-10 00:00:00 NR 10.3668 154.259 main 1515 1500 __________P___ -1 10.3668 154.259 4 10 279
1940253N10156 1940 63 WP MM NOT_NAMED 1940-09-10 03:00:00 NR 10.4506 153.707 main 1511 1499 __________P___ -1 10.4506 153.707 4 13 279
1940253N10156 1940 63 WP MM NOT_NAMED 1940-09-10 06:00:00 NR 10.5592 152.977 main 1508 1499 __________P___ -1 10.5592 152.977 4 17 278
1940253N10156 1940 63 WP MM NOT_NAMED 1940-09-10 09:00:00 NR 10.7000 152.000 main 1506 1499 __________O___ -1 10.7000 152.000 4 25 278
1940253N10156 1940 63 WP MM NOT_NAMED 1940-09-10 12:00:00 NR 10.9077 150.502 main 1496 1486 __________P___ -1 10.9077 150.502 4 32 278
1940253N10156 1940 63 WP MM NOT_NAMED 1940-09-10 15:00:00 NR 11.1343 148.791 main 1487 1486 __________P___ -1 11.1343 148.791 4 33 277
1940253N10156 1940 63 WP MM NOT_NAMED 1940-09-10 18:00:00 NR 11.3423 147.134 main 1501 1501 __________P___ -1 11.3423 147.134 4 30 277
1940253N10156 1940 63 WP MM NOT_NAMED 1940-09-10 21:00:00 NR 11.5000 145.800 main 1526 1526 __________O___ -1 11.5000 145.800 4 20 276
1940253N10156 1940 63 WP MM NOT_NAMED 1940-09-11 00:00:00 NR 11.5336 145.132 main 1532 1532 __________P___ -1 11.5336 145.132 4 10 272
1940253N10156 1940 63 WP MM NOT_NAMED 1940-09-11 03:00:00 NR 11.5292 144.810 main 1536 1536 __________P___ -1 11.5292 144.810 4 4 270
1940253N10156 1940 63 WP MM NOT_NAMED 1940-09-11 06:00:00 NR 11.5354 144.682 main 1538 1538 __________P___ -1 11.5354 144.682 4 2 289
1940253N10156 1940 63 WP MM NOT_NAMED 1940-09-11 09:00:00 NR 11.6000 144.600 main 1550 1550 __________O___ -1 11.6000 144.600 4 5 306
1940253N10156 1940 63 WP MM NOT_NAMED 1940-09-11 12:00:00 NR 11.8056 144.308 main 1578 1578 __________P___ -1 11.8056 144.308 4 7 310
1940253N10156 1940 63 WP MM NOT_NAMED 1940-09-11 15:00:00 NR 12.0700 144.033 main 1616 1616 __________P___ -1 12.0700 144.033 4 7 317
1940253N10156 1940 63 WP MM NOT_NAMED 1940-09-11 18:00:00 NR 12.3494 143.792 main 1642 1642 __________P___ -1 12.3494 143.792 4 7 321
1940253N10156 1940 63 WP MM NOT_NAMED 1940-09-11 21:00:00 NR 12.6000 143.600 main 1680 1680 __________O___ -1 12.6000 143.600 4 5 323
1940253N10156 1940 63 WP MM NOT_NAMED 1940-09-12 00:00:00 NR 12.7404 143.495 main 1693 1693 __________P___ -1 12.7404 143.495 4 3 327
1940253N10156 1940 63 WP MM NOT_NAMED 1940-09-12 03:00:00 NR 12.8497 143.434 main 1706 1706 __________P___ -1 12.8497 143.434 4 2 332
1940253N10156 1940 63 WP MM NOT_NAMED 1940-09-12 06:00:00 NR 12.9592 143.382 main 1728 1728 __________P___ -1 12.9592 143.382 4 3 332
1940253N10156 1940 63 WP MM NOT_NAMED 1940-09-12 09:00:00 NR 13.1000 143.300 main 1740 1740 __________O___ -1 13.1000 143.300 4 5 325
1940253N10156 1940 63 WP MM NOT_NAMED 1940-09-12 12:00:00 NR 13.3305 143.116 main 1754 1754 __________P___ -1 13.3305 143.116 4 6 322
1940253N10156 1940 63 WP MM NOT_NAMED 1940-09-12 15:00:00 NR 13.5927 142.901 main 1780 1780 __________P___ -1 13.5927 142.901 4 7 322
1940253N10156 1940 63 WP MM NOT_NAMED 1940-09-12 18:00:00 NR 13.8586 142.685 main 1806 1803 __________P___ -1 13.8586 142.685 4 6 323
1940253N10156 1940 63 WP MM NOT_NAMED 1940-09-12 21:00:00 NR 14.1000 142.500 main 1820 1820 __________O___ -1 14.1000 142.500 4 5 324
1940253N10156 1940 63 WP MM NOT_NAMED 1940-09-13 00:00:00 NR 14.2624 142.385 main 1837 1828 __________P___ -1 14.2624 142.385 4 4 328
1940253N10156 1940 63 WP MM NOT_NAMED 1940-09-13 03:00:00 NR 14.3999 142.305 main 1830 1830 __________P___ -1 14.3999 142.305 4 3 335
1940253N10156 1940 63 WP MM NOT_NAMED 1940-09-13 06:00:00 NR 14.5374 142.247 main 1821 1821 __________P___ -1 14.5374 142.247 4 3 340
1940253N10156 1940 63 WP MM NOT_NAMED 1940-09-13 09:00:00 NR 14.7000 142.200 main 1825 1819 __________O___ -1 14.7000 142.200 4 4 345
1940253N10156 1940 63 WP MM NOT_NAMED 1940-09-13 12:00:00 NR 14.9334 142.139 main 1819 1819 __________P___ -1 14.9334 142.139 4 5 347
1940253N10156 1940 63 WP MM NOT_NAMED 1940-09-13 15:00:00 NR 15.1925 142.085 main 1824 1817 __________P___ -1 15.1925 142.085 4 5 349
1940253N10156 1940 63 WP MM NOT_NAMED 1940-09-13 18:00:00 NR 15.4553 142.039 main 1819 1819 __________P___ -1 15.4553 142.039 4 5 351
1940253N10156 1940 63 WP MM NOT_NAMED 1940-09-13 21:00:00 NR 15.7000 142.000 main 1823 1823 __________O___ -1 15.7000 142.000 4 4 356
1940253N10156 1940 63 WP MM NOT_NAMED 1940-09-14 00:00:00 NR 15.8150 142.035 main 1825 1825 __________P___ -1 15.8150 142.035 4 2 16
1940253N10156 1940 63 WP MM NOT_NAMED 1940-09-14 03:00:00 NR 15.9220 142.068 main 1838 1831 __________P___ -1 15.9220 142.068 4 3 0
1940253N10156 1940 63 WP MM NOT_NAMED 1940-09-14 06:00:00 NR 16.0929 142.041 main 1831 1826 __________P___ -1 16.0929 142.041 4 5 341
1940253N10156 1940 63 WP MM NOT_NAMED 1940-09-14 09:00:00 NR 16.4000 141.900 main 1828 1808 __________O___ -1 16.4000 141.900 4 10 331
1940253N10156 1940 63 WP MM NOT_NAMED 1940-09-14 12:00:00 NR 16.9851 141.531 main 1803 1781 __________P___ -1 16.9851 141.531 4 15 328
1940253N10156 1940 63 WP MM NOT_NAMED 1940-09-14 15:00:00 NR 17.6993 141.050 main 1785 1721 __________P___ -1 17.6993 141.050 4 17 327
1940253N10156 1940 63 WP MM NOT_NAMED 1940-09-14 18:00:00 NR 18.4385 140.543 main 1715 1627 __________P___ -1 18.4385 140.543 4 17 327
1940253N10156 1940 63 WP MM NOT_NAMED 1940-09-14 21:00:00 NR 19.1000 140.100 main 1627 1577 __________O___ -1 19.1000 140.100 4 12 328
1940253N10156 1940 63 WP MM NOT_NAMED 1940-09-15 00:00:00 NR 19.4858 139.851 main 1577 1538 __________P___ -1 19.4858 139.851 4 8 330
1940253N10156 1940 63 WP MM NOT_NAMED 1940-09-15 03:00:00 NR 19.7915 139.679 main 1538 1498 __________P___ -1 19.7915 139.679 4 7 335
1940253N10156 1940 63 WP MM NOT_NAMED 1940-09-15 06:00:00 NR 20.1016 139.542 main 1498 1455 __________P___ -1 20.1016 139.542 4 8 340
1940253N10156 1940 63 WP MM NOT_NAMED 1940-09-15 09:00:00 NR 20.5000 139.400 main 1455 1387 __________O___ -1 20.5000 139.400 4 11 342
1940253N10156 1940 63 WP MM NOT_NAMED 1940-09-15 12:00:00 NR 21.1686 139.163 main 1377 1295 __________P___ -1 21.1686 139.163 4 15 342
1940253N10156 1940 63 WP MM NOT_NAMED 1940-09-15 15:00:00 NR 21.9228 138.915 main 1295 1218 __________P___ -1 21.9228 138.915 4 16 343
1940253N10156 1940 63 WP MM NOT_NAMED 1940-09-15 18:00:00 NR 22.6656 138.685 main 1209 1143 __________P___ -1 22.6656 138.685 4 14 344
1940253N10156 1940 63 WP MM NOT_NAMED 1940-09-15 21:00:00 NR 23.3000 138.500 main 1143 1110 __________O___ -1 23.3000 138.500 4 10 344
1940253N10156 1940 63 WP MM NOT_NAMED 1940-09-16 00:00:00 NR 23.6441 138.370 main 1110 1077 __________P___ -1 23.6441 138.370 4 6 342
1940253N10156 1940 63 WP MM NOT_NAMED 1940-09-16 03:00:00 NR 23.8796 138.294 main 1077 1059 __________P___ -1 23.8796 138.294 4 5 349
1940253N10156 1940 63 WP MM NOT_NAMED 1940-09-16 06:00:00 NR 24.1004 138.271 main 1059 1033 __________P___ -1 24.1004 138.271 4 5 0
1940253N10156 1940 63 WP MM NOT_NAMED 1940-09-16 09:00:00 NR 24.4000 138.300 main 1033 981 __________O___ -1 24.4000 138.300 4 8 6
1940253N10156 1940 63 WP MM NOT_NAMED 1940-09-16 12:00:00 NR 24.9147 138.362 main 981 919 __________P___ -1 24.9147 138.362 4 11 8
1940253N10156 1940 63 WP MM NOT_NAMED 1940-09-16 15:00:00 NR 25.5176 138.475 main 919 858 __________P___ -1 25.5176 138.475 4 13 11
1940253N10156 1940 63 WP MM NOT_NAMED 1940-09-16 18:00:00 NR 26.1616 138.625 main 847 790 __________P___ -1 26.1616 138.625 4 13 13
1940253N10156 1940 63 WP MM NOT_NAMED 1940-09-16 21:00:00 NR 26.8000 138.800 main 790 742 __________O___ -1 26.8000 138.800 4 12 14
1940253N10156 1940 63 WP MM NOT_NAMED 1940-09-17 00:00:00 NR 27.2829 138.945 main 742 709 __________P___ -1 27.2829 138.945 4 10 16
1940253N10156 1940 63 WP MM NOT_NAMED 1940-09-17 03:00:00 NR 27.7646 139.116 main 699 659 __________P___ -1 27.7646 139.116 4 11 18
1940253N10156 1940 63 WP MM NOT_NAMED 1940-09-17 06:00:00 NR 28.3140 139.328 main 659 609 __________P___ -1 28.3140 139.328 4 13 19
1940253N10156 1940 63 WP MM NOT_NAMED 1940-09-17 09:00:00 NR 29.0000 139.600 main 609 545 __________O___ -1 29.0000 139.600 4 17 17
1940253N10156 1940 63 WP MM NOT_NAMED 1940-09-17 12:00:00 NR 29.8849 139.893 main 534 432 __________P___ -1 29.8849 139.893 4 20 17
1940253N10156 1940 63 WP MM NOT_NAMED 1940-09-17 15:00:00 NR 30.9106 140.257 main 435 331 __________P___ -1 30.9106 140.257 4 23 18
1940253N10156 1940 63 WP MM NOT_NAMED 1940-09-17 18:00:00 NR 32.0310 140.718 main 331 233 __________P___ -1 32.0310 140.718 4 25 21
1940253N10156 1940 63 WP MM NOT_NAMED 1940-09-17 21:00:00 NR 33.2000 141.300 main 229 176 __________O___ -1 33.2000 141.300 4 25 25
1940253N10156 1940 63 WP MM NOT_NAMED 1940-09-18 00:00:00 NR 34.3235 142.016 main 177 161 __________P___ -1 34.3235 142.016 4 26 29
1940253N10156 1940 63 WP MM NOT_NAMED 1940-09-18 03:00:00 NR 35.4832 142.862 main 181 181 __________P___ -1 35.4832 142.862 4 28 32
1940253N10156 1940 63 WP MM NOT_NAMED 1940-09-18 06:00:00 NR 36.6760 143.802 main 250 250 __________P___ -1 36.6760 143.802 4 29 33
1940253N10156 1940 63 WP MM NOT_NAMED 1940-09-18 09:00:00 NR 37.9000 144.800 main 287 287 __________O___ -1 37.9000 144.800 4 31 32
1940253N10156 1940 63 WP MM NOT_NAMED 1940-09-18 12:00:00 NR 39.2609 145.849 main 317 309 __________P___ -1 39.2609 145.849 4 32 31
1940253N10156 1940 63 WP MM NOT_NAMED 1940-09-18 15:00:00 NR 40.6322 146.951 main 313 250 __________P___ -1 40.6322 146.951 4 31 32
1940253N10156 1940 63 WP MM NOT_NAMED 1940-09-18 18:00:00 NR 41.9119 148.056 main 256 232 __________P___ -1 41.9119 148.056 4 29 34
1940253N10156 1940 63 WP MM NOT_NAMED 1940-09-18 21:00:00 NR 43.0000 149.100 main 232 201 __________O___ -1 43.0000 149.100 4 21 36
1940253N10156 1940 63 WP MM NOT_NAMED 1940-09-19 00:00:00 NR 43.6533 149.763 main 194 173 __________P___ -1 43.6533 149.763 4 15 39
1940253N10156 1940 63 WP MM NOT_NAMED 1940-09-19 03:00:00 NR 44.1388 150.363 main 175 149 __________P___ -1 44.1388 150.363 4 14 45
1940253N10156 1940 63 WP MM NOT_NAMED 1940-09-19 06:00:00 NR 44.6315 151.127 main 155 150 __________P___ -1 44.6315 151.127 4 18 50
1940253N10156 1940 63 WP MM NOT_NAMED 1940-09-19 09:00:00 NR 45.3000 152.300 main 171 171 __________O___ -1 45.3000 152.300 4 26 52
1940253N10156 1940 63 WP MM NOT_NAMED 1940-09-19 12:00:00 NR 46.2582 154.093 main 284 284 __________P___ -1 46.2582 154.093 4 36 53
1940253N10156 1940 63 WP MM NOT_NAMED 1940-09-19 15:00:00 NR 47.4367 156.471 main 299 270 __________P___ -1 47.4367 156.471 4 43 55
1940253N10156 1940 63 WP MM NOT_NAMED 1940-09-19 18:00:00 NR 48.7204 159.321 main 295 295 __________P___ -1 48.7204 159.321 4 47 57
1940253N10156 1940 63 WP MM NOT_NAMED 1940-09-19 21:00:00 NR 50.0000 162.500 main 366 __________O___ -1 50.0000 162.500 4 48 58

デジタル台風データ・検索

IBTrACS Databaseについて

本データベースは、米国NOAAが公開する1842年以降の世界の熱帯低気圧のベストトラックデータアーカイブInternational Best Track Archive for Climate Stewardship (IBTrACS)を、ウェブで閲覧しやすい形式に変換したものです。

最終更新日:2021-10-08